Airfield :
LOGIN :

Register | Disclaimer

   EN    FR    IT 

 










Legend :    VFR   Marginal VFR   IFR   Intensive IFR   Very Intensive IFR
Visi :
Ceiling :
>= 8 km
>= 3000ft
5 to 8 km
1000 to 3000 ft
1500m to 5 km
500 to 1000 ft
800 to 1500m
200 to 500 ft
< 800m
< 200 ft
Symbols :   Thunderstorms  Fog  Heavy snow  Heavy precipitations  Wind > 20 kt
SIGMETs :     Misc.  Thunderstorms  Icing  Turbulence  Mountain Waves  Volcanic Ashes







- Airport Elevation : 768 ft
- IATA code : MXP


LIMC - Milano Malpensa

CURRENT METAR :
  • 182250Z 02004KT CAVOK 01/00 Q1017 NOSIG

EXPIRED METARs :
  • 182220Z 02006KT CAVOK 01/00 Q1017 NOSIG
  • 182150Z 03003KT CAVOK 01/00 Q1017 NOSIG
  • 182120Z 03002KT CAVOK 02/01 Q1017 NOSIG
  • 182050Z 01003KT CAVOK 02/01 Q1017 NOSIG
  • 182020Z 02002KT CAVOK 02/01 Q1017 NOSIG

TAF TAF LIMC
Valid from the 18 at 18:00 until the 20 at 00:00 UTC


181700Z 1818/1924 VRB05KT CAVOK
TEMPO 1900/1908 3000 BCFG
No reported NOTAMs for that airfield.



MET'MAP, your aeronautical weather chart ! - Copyright ORBIFLY December 2007 - Disclaimer

ORBIFLY MET'MAP TEAM :

Programming & Development : Alexandra Zaïnal
Concept & Development : Baudouin d'Aumeries
Co-Development & Prog : Marc-Olivier Méhu
Technical & hardware support : Manuel Goepfert

Contact : metmap@orbifly.com




SOURCES & CREDITS :

   NOAA